Time;durP1;ratioP1;P1;durP2;ratioP2;P2;SDS_P1;SDS_P2;PMS_P1;PMS_P2;Temp;Humidity;BMP_temperature;BMP_pressure;BME280_temperature;BME280_humidity;BME280_pressure;Samples;Min_cycle;Max_cycle;Signal;HPM_P1;HPM_P2
2022/04/06 00:02:05;;;;;;;12.60;4.63;;;;;;;13.78;59.99;100371.84;4943054;28;114403;-66
2022/04/06 00:04:32;;;;;;;11.75;4.63;;;;;;;13.77;59.93;100370.16;4934362;28;114034;-66
2022/04/06 00:06:59;;;;;;;16.73;4.85;;;;;;;13.77;59.98;100370.16;4933983;28;123811;-67
2022/04/06 00:09:26;;;;;;;13.18;4.30;;;;;;;13.76;60.02;100363.13;4935914;28;124727;-66
2022/04/06 00:11:54;;;;;;;11.77;4.30;;;;;;;13.75;59.93;100366.75;4953005;28;114052;-67
2022/04/06 00:14:21;;;;;;;16.17;4.82;;;;;;;13.74;59.93;100365.03;4937260;28;113840;-67
2022/04/06 00:16:48;;;;;;;16.17;4.25;;;;;;;13.73;59.76;100360.69;4933121;28;123948;-67
2022/04/06 00:19:15;;;;;;;15.38;4.53;;;;;;;13.71;59.69;100354.59;4942175;28;124166;-67
2022/04/06 00:21:42;;;;;;;13.25;5.43;;;;;;;13.71;59.83;100354.59;4936243;28;114320;-67
2022/04/06 00:24:10;;;;;;;13.43;4.50;;;;;;;13.70;59.88;100355.53;4944722;28;113911;-66
2022/04/06 00:26:37;;;;;;;15.95;4.70;;;;;;;13.70;59.84;100358.22;4936510;28;124198;-67
2022/04/06 00:29:04;;;;;;;11.30;4.57;;;;;;;13.70;59.84;100362.69;4959915;28;123454;-66
2022/04/06 00:31:32;;;;;;;11.93;4.53;;;;;;;13.69;59.92;100353.81;4935905;28;114584;-68
2022/04/06 00:33:59;;;;;;;11.82;4.25;;;;;;;13.68;59.93;100354.78;4936894;28;114403;-69
2022/04/06 00:36:26;;;;;;;14.90;4.90;;;;;;;13.69;59.76;100353.81;4935332;28;123891;-67
2022/04/06 00:38:53;;;;;;;16.20;4.88;;;;;;;13.66;59.38;100359.38;4935100;28;123778;-67
2022/04/06 00:41:21;;;;;;;16.27;5.40;;;;;;;13.65;59.61;100354.97;4933519;28;115498;-67
2022/04/06 00:44:11;;;;;;;10.40;4.32;;;;;;;13.63;59.78;100351.56;4936674;28;115332;-67
2022/04/06 00:46:39;;;;;;;12.35;4.43;;;;;;;13.63;59.85;100346.25;4934296;28;124746;-67
2022/04/06 00:49:13;;;;;;;12.35;4.47;;;;;;;13.62;59.70;100344.56;4948053;28;123772;-67
2022/04/06 00:51:45;;;;;;;17.55;5.00;;;;;;;13.61;59.64;100337.53;4933560;28;114214;-67
2022/04/06 00:54:14;;;;;;;12.40;4.53;;;;;;;13.61;59.74;100342.84;4931570;28;114130;-67
2022/04/06 00:56:43;;;;;;;16.65;4.75;;;;;;;13.60;59.78;100335.84;4934386;28;125148;-68
2022/04/06 00:59:11;;;;;;;15.48;5.15;;;;;;;13.59;59.70;100339.44;4931418;28;124802;-69
2022/04/06 01:01:39;;;;;;;16.60;4.85;;;;;;;13.59;59.65;100328.78;4929515;28;114340;-69
2022/04/06 01:04:06;;;;;;;14.40;4.70;;;;;;;13.57;59.80;100322.72;4936272;28;114616;-69
2022/04/06 01:06:33;;;;;;;13.98;4.47;;;;;;;13.58;59.77;100333.25;4932840;28;124107;-69
2022/04/06 01:09:02;;;;;;;12.80;4.00;;;;;;;13.59;59.60;100331.44;4936999;28;124806;-69
2022/04/06 01:11:30;;;;;;;12.63;4.30;;;;;;;13.58;59.74;100327.06;4936935;28;114132;-69
2022/04/06 01:13:57;;;;;;;16.40;4.15;;;;;;;13.57;59.58;100325.38;4935896;28;113918;-69
2022/04/06 01:16:24;;;;;;;14.73;4.53;;;;;;;13.56;59.80;100334.31;4938788;28;124040;-69
2022/04/06 01:18:52;;;;;;;16.58;4.72;;;;;;;13.55;59.80;100335.28;4936144;28;123986;-70
2022/04/06 01:21:20;;;;;;;12.77;4.30;;;;;;;13.54;59.71;100325.56;4938992;28;113918;-69
2022/04/06 01:23:49;;;;;;;16.10;4.60;;;;;;;13.53;59.63;100329.19;4955689;28;113869;-69
2022/04/06 01:26:16;;;;;;;14.40;4.32;;;;;;;13.51;59.62;100320.47;4936349;28;124541;-69
2022/04/06 01:28:43;;;;;;;16.10;4.10;;;;;;;13.50;59.62;100319.59;4938861;28;123146;-69
2022/04/06 01:31:10;;;;;;;13.05;4.28;;;;;;;13.49;59.64;100317.06;4938065;28;115999;-69
2022/04/06 01:33:38;;;;;;;14.20;4.13;;;;;;;13.48;59.52;100310.88;4936511;28;115165;-69
2022/04/06 01:36:05;;;;;;;10.27;4.00;;;;;;;13.49;59.61;100319.72;4934082;28;124122;-69
2022/04/06 01:38:34;;;;;;;12.10;3.90;;;;;;;13.49;59.63;100311.75;4937742;28;124211;-70
2022/04/06 01:41:02;;;;;;;12.85;3.90;;;;;;;13.48;59.69;100310.88;4945665;28;114022;-69
2022/04/06 01:43:29;;;;;;;9.32;3.85;;;;;;;13.48;59.47;100304.69;4936361;28;114411;-69
2022/04/06 01:45:56;;;;;;;12.05;3.80;;;;;;;13.48;59.48;100310.00;4933809;28;123868;-69
2022/04/06 01:48:23;;;;;;;14.55;3.63;;;;;;;13.46;59.44;100311.94;4945810;28;122428;-69
2022/04/06 01:53:36;;;;;;;14.27;3.90;;;;;;;13.47;59.48;100308.28;4936666;28;114065;-67
2022/04/06 01:56:04;;;;;;;13.07;3.47;;;;;;;13.46;59.44;100306.59;4938576;28;123876;-68
2022/04/06 01:58:31;;;;;;;8.85;3.50;;;;;;;13.46;59.52;100298.63;4961060;28;123122;-68
2022/04/06 02:00:58;;;;;;;11.07;3.42;;;;;;;13.44;59.33;100299.56;4957478;28;113186;-67
2022/04/06 02:03:26;;;;;;;14.13;4.00;;;;;;;13.44;59.57;100294.25;4952603;28;112937;-67
2022/04/06 02:05:53;;;;;;;12.13;3.78;;;;;;;13.43;59.46;100303.19;4940526;28;123977;-70
2022/04/06 02:08:20;;;;;;;13.10;3.67;;;;;;;13.42;59.33;100306.78;4935331;28;124028;-68
2022/04/06 02:10:48;;;;;;;11.82;3.42;;;;;;;13.40;59.35;100308.72;4948479;28;113134;-67
2022/04/06 02:13:15;;;;;;;10.57;3.67;;;;;;;13.40;59.35;100292.75;4934677;28;113843;-67
2022/04/06 02:15:46;;;;;;;10.05;3.35;;;;;;;13.38;59.34;100299.97;4936823;28;123874;-68
2022/04/06 02:18:13;;;;;;;9.57;3.50;;;;;;;13.38;59.30;100294.66;4939535;28;124049;-68
2022/04/06 02:20:40;;;;;;;9.85;2.90;;;;;;;13.38;59.31;100284.03;4953422;28;114941;-67
2022/04/06 02:23:10;;;;;;;10.13;4.20;;;;;;;13.38;59.16;100296.47;4943480;28;115635;-68
2022/04/06 02:25:37;;;;;;;11.85;3.40;;;;;;;13.36;59.35;100291.25;4936102;28;125357;-67
2022/04/06 02:28:05;;;;;;;12.73;2.90;;;;;;;13.34;59.34;100293.16;4940039;28;123489;-68
2022/04/06 02:30:32;;;;;;;13.43;3.85;;;;;;;13.34;59.21;100282.53;4938952;28;114971;-68
2022/04/06 02:32:59;;;;;;;11.00;3.17;;;;;;;13.33;59.36;100280.81;4940731;28;114197;-68
2022/04/06 02:35:26;;;;;;;10.07;2.63;;;;;;;13.32;59.22;100284.44;4933378;28;124040;-68
2022/04/06 02:37:54;;;;;;;10.25;2.60;;;;;;;13.32;59.07;100289.75;4955727;28;123327;-68
2022/04/06 02:40:22;;;;;;;11.30;2.80;;;;;;;13.31;59.10;100272.06;4932780;28;114956;-68
2022/04/06 02:42:49;;;;;;;12.30;2.78;;;;;;;13.32;59.01;100273.78;4955779;28;113932;-68
2022/04/06 02:45:16;;;;;;;10.48;3.03;;;;;;;13.32;59.08;100278.25;4944680;28;124689;-68
2022/04/06 02:47:46;;;;;;;10.43;2.78;;;;;;;13.32;59.05;100279.13;4937464;28;124607;-68
2022/04/06 02:50:13;;;;;;;7.68;2.75;;;;;;;13.31;59.16;100272.06;4950660;28;114644;-68
2022/04/06 02:52:41;;;;;;;9.32;2.60;;;;;;;13.31;59.25;100271.22;4936064;28;114545;-68
2022/04/06 02:55:12;;;;;;;9.68;2.75;;;;;;;13.30;59.04;100269.47;4934504;28;124455;-68
2022/04/06 02:57:41;;;;;;;7.97;2.58;;;;;;;13.29;59.07;100263.31;4937176;28;123963;-68
2022/04/06 03:00:09;;;;;;;8.70;2.50;;;;;;;13.28;58.95;100266.94;4935499;28;114945;-68
2022/04/06 03:02:36;;;;;;;9.35;2.40;;;;;;;13.27;59.04;100270.53;4940204;28;114050;-68
2022/04/06 03:05:04;;;;;;;9.68;2.67;;;;;;;13.27;58.99;100270.53;4937987;28;123991;-68
2022/04/06 03:07:31;;;;;;;9.63;2.60;;;;;;;13.27;58.77;100259.91;4938285;28;124474;-68
2022/04/06 03:09:58;;;;;;;10.88;2.95;;;;;;;13.26;58.86;100252.91;4934616;28;115971;-68
2022/04/06 03:12:25;;;;;;;9.30;2.53;;;;;;;13.26;58.84;100263.53;4935672;28;115657;-69
2022/04/06 03:14:52;;;;;;;7.35;2.80;;;;;;;13.25;58.68;100253.84;4944077;28;124036;-68
2022/04/06 03:17:19;;;;;;;7.90;2.20;;;;;;;13.24;58.55;100254.78;4937662;28;122989;-69
2022/04/06 03:19:47;;;;;;;8.00;2.28;;;;;;;13.23;58.75;100248.59;4941002;28;115139;-68
2022/04/06 03:22:17;;;;;;;9.05;2.30;;;;;;;13.23;58.69;100253.09;4940128;28;113905;-68
2022/04/06 03:24:45;;;;;;;8.02;2.10;;;;;;;13.21;58.65;100239.03;4938063;28;123945;-69
2022/04/06 03:27:13;;;;;;;8.18;2.50;;;;;;;13.20;58.61;100247.97;4936210;28;123782;-67
2022/04/06 03:29:41;;;;;;;8.90;2.85;;;;;;;13.18;58.61;100239.22;4935050;28;114406;-67
2022/04/06 03:32:09;;;;;;;9.65;2.50;;;;;;;13.16;58.52;100236.66;4959142;28;113142;-67
2022/04/06 03:34:36;;;;;;;10.68;2.40;;;;;;;13.15;58.39;100229.66;4938314;28;124240;-68
2022/04/06 03:37:04;;;;;;;9.57;3.05;;;;;;;13.14;58.63;100232.41;4942958;28;124104;-67
2022/04/06 03:39:31;;;;;;;12.80;3.22;;;;;;;13.13;58.39;100230.69;4938094;28;114155;-69
2022/04/06 03:41:58;;;;;;;9.60;2.65;;;;;;;13.12;58.09;100223.69;4937381;28;114264;-67
2022/04/06 03:44:26;;;;;;;7.32;2.50;;;;;;;13.09;58.35;100226.53;4942600;28;124128;-67
2022/04/06 03:46:56;;;;;;;9.77;2.17;;;;;;;13.07;58.37;100220.47;4942876;28;124027;-67
2022/04/06 03:49:23;;;;;;;6.72;2.47;;;;;;;13.05;58.40;100226.75;4935643;28;114079;-67
2022/04/06 03:51:51;;;;;;;8.48;2.38;;;;;;;13.03;58.29;100210.06;4937276;28;113943;-67
2022/04/06 03:54:18;;;;;;;5.53;2.20;;;;;;;13.02;58.15;100221.63;4940497;28;123850;-67
2022/04/06 03:56:45;;;;;;;9.55;2.25;;;;;;;13.01;58.14;100217.25;4941935;28;123446;-68
2022/04/06 03:59:12;;;;;;;12.05;2.08;;;;;;;13.00;58.29;100220.88;4942785;28;115063;-68
2022/04/06 04:01:40;;;;;;;9.10;2.20;;;;;;;12.99;58.24;100219.16;4939525;28;115568;-68
2022/04/06 04:04:10;;;;;;;6.22;2.35;;;;;;;12.98;58.08;100225.44;4951926;28;124230;-68
2022/04/06 04:06:37;;;;;;;7.88;2.13;;;;;;;12.99;58.36;100229.78;4950493;28;124477;-68
2022/04/06 04:09:05;;;;;;;7.15;2.10;;;;;;;12.98;58.11;100222.78;4932808;28;114457;-67
2022/04/06 04:11:33;;;;;;;7.78;2.22;;;;;;;12.97;58.08;100215.75;4956435;28;112848;-68
2022/04/06 04:14:01;;;;;;;6.28;2.10;;;;;;;12.96;58.12;100211.41;4941519;28;123865;-67
2022/04/06 04:16:28;;;;;;;7.88;2.45;;;;;;;12.95;58.01;100217.66;4937496;28;124471;-68
2022/04/06 04:18:56;;;;;;;11.32;2.58;;;;;;;12.95;58.07;100217.66;4937808;28;114517;-68
2022/04/06 04:21:32;;;;;;;6.30;2.10;;;;;;;12.94;57.95;100215.97;4944023;28;114568;-68
2022/04/06 04:24:00;;;;;;;10.07;2.10;;;;;;;12.94;57.87;100210.66;4940870;28;123816;-68
2022/04/06 04:26:28;;;;;;;7.50;1.90;;;;;;;12.94;58.01;100210.66;4951739;28;123988;-68
2022/04/06 04:28:56;;;;;;;7.10;2.10;;;;;;;12.94;57.89;100210.66;4942588;28;114708;-68
2022/04/06 04:31:23;;;;;;;8.27;1.98;;;;;;;12.93;57.86;100211.59;4932001;28;115177;-68
2022/04/06 04:33:50;;;;;;;7.85;2.20;;;;;;;12.94;57.77;100204.47;4948156;28;124097;-68
2022/04/06 04:36:17;;;;;;;6.82;1.92;;;;;;;12.94;57.94;100208.00;4937525;28;123831;-68
2022/04/06 04:38:45;;;;;;;7.18;1.75;;;;;;;12.94;57.60;100215.09;4936463;28;114055;-68
2022/04/06 04:41:12;;;;;;;7.55;1.65;;;;;;;12.94;57.62;100210.66;4928679;28;114220;-68
2022/04/06 04:43:39;;;;;;;7.30;2.00;;;;;;;12.93;57.71;100208.94;4933571;28;123907;-68
2022/04/06 04:46:07;;;;;;;8.40;1.60;;;;;;;12.94;57.57;100210.66;4934495;28;123764;-68
2022/04/06 04:48:35;;;;;;;4.85;2.15;;;;;;;12.92;57.56;100201.94;4936538;28;115339;-68
2022/04/06 04:51:02;;;;;;;6.63;1.70;;;;;;;12.92;57.68;100201.94;4938494;28;114140;-68
2022/04/06 04:53:30;;;;;;;6.07;1.88;;;;;;;12.91;57.55;100210.84;4938045;28;124469;-68
2022/04/06 04:55:57;;;;;;;4.75;1.67;;;;;;;12.92;57.63;100207.25;4946689;28;123920;-69
2022/04/06 04:58:26;;;;;;;5.20;1.70;;;;;;;12.92;57.36;100196.63;4949877;28;114640;-69
2022/04/06 05:00:56;;;;;;;4.95;1.50;;;;;;;12.92;57.54;100204.59;4944913;28;114226;-69
2022/04/06 05:03:23;;;;;;;8.25;1.95;;;;;;;12.92;57.35;100196.63;4940521;28;123621;-69
2022/04/06 05:05:53;;;;;;;8.65;2.50;;;;;;;12.94;57.67;100189.38;4938345;28;124114;-69
2022/04/06 05:08:25;;;;;;;8.93;2.60;;;;;;;12.95;57.50;100188.41;4944725;28;114343;-69
2022/04/06 05:10:52;;;;;;;8.88;2.15;;;;;;;12.95;57.34;100185.75;4951501;28;113687;-70
2022/04/06 05:13:20;;;;;;;10.93;2.58;;;;;;;12.97;57.53;100189.16;4939986;28;124368;-70
2022/04/06 05:15:49;;;;;;;7.38;2.78;;;;;;;12.97;57.38;100189.16;4955739;28;123653;-70
2022/04/06 05:18:16;;;;;;;10.43;3.17;;;;;;;12.97;57.61;100183.84;4960214;28;113351;-71
2022/04/06 05:20:44;;;;;;;12.55;2.60;;;;;;;12.98;57.49;100188.22;4936385;28;114117;-71
2022/04/06 05:23:11;;;;;;;9.32;2.83;;;;;;;12.99;57.48;100181.94;4948466;28;125231;-71
2022/04/06 05:25:38;;;;;;;9.35;3.53;;;;;;;13.00;57.38;100178.34;4940747;28;123732;-71
2022/04/06 05:28:08;;;;;;;10.80;3.08;;;;;;;13.01;57.79;100180.03;4942981;28;113878;-71
2022/04/06 05:30:38;;;;;;;9.07;3.20;;;;;;;13.03;57.59;100177.28;4938310;28;114382;-71
2022/04/06 05:33:05;;;;;;;10.80;3.63;;;;;;;13.04;57.74;100173.69;4937413;28;124283;-70
2022/04/06 05:35:33;;;;;;;9.90;3.15;;;;;;;13.04;57.63;100185.16;4939351;28;123933;-71
2022/04/06 05:38:01;;;;;;;11.45;3.30;;;;;;;13.05;57.55;100186.88;4939147;28;115896;-69
2022/04/06 05:40:28;;;;;;;13.15;3.40;;;;;;;13.07;57.59;100183.25;4940434;28;115659;-67
2022/04/06 05:42:56;;;;;;;10.18;3.20;;;;;;;13.07;57.75;100172.63;4943402;28;123720;-67
2022/04/06 05:45:23;;;;;;;10.77;3.47;;;;;;;13.09;57.58;100170.69;4935980;28;123955;-68
2022/04/06 05:47:51;;;;;;;11.77;3.20;;;;;;;13.10;57.54;100167.09;4942424;28;114549;-69
2022/04/06 05:50:18;;;;;;;9.98;3.00;;;;;;;13.11;57.56;100184.75;4939387;28;114145;-69
2022/04/06 05:52:46;;;;;;;9.05;2.75;;;;;;;13.11;57.37;100163.47;4939747;28;124733;-69
2022/04/06 05:55:13;;;;;;;12.27;3.03;;;;;;;13.13;57.45;100166.88;4947690;28;124013;-69
2022/04/06 05:57:40;;;;;;;8.88;3.00;;;;;;;13.12;57.44;100168.69;4945681;28;114788;-69
2022/04/06 06:00:09;;;;;;;6.55;2.70;;;;;;;13.14;57.32;100163.28;4944218;28;113924;-70
2022/04/06 06:02:38;;;;;;;12.70;3.30;;;;;;;13.16;57.42;100166.69;4938614;28;124387;-69
2022/04/06 06:05:06;;;;;;;8.02;2.58;;;;;;;13.16;57.39;100166.69;4941432;28;124376;-69
2022/04/06 06:07:33;;;;;;;10.02;2.70;;;;;;;13.15;57.30;100165.84;4951892;28;113651;-70
2022/04/06 06:10:02;;;;;;;9.50;2.70;;;;;;;13.16;57.30;100174.66;4944894;28;114231;-69
2022/04/06 06:12:31;;;;;;;7.95;2.60;;;;;;;13.17;57.31;100163.09;4932761;28;123988;-69
2022/04/06 06:14:58;;;;;;;6.05;2.38;;;;;;;13.17;57.30;100163.09;4948613;28;123815;-69
2022/04/06 06:17:26;;;;;;;7.43;2.55;;;;;;;13.19;57.13;100171.81;4949165;28;113288;-69
2022/04/06 06:19:53;;;;;;;5.53;2.15;;;;;;;13.20;57.09;100170.84;4932392;28;114517;-70
2022/04/06 06:22:20;;;;;;;9.75;2.38;;;;;;;13.21;57.11;100167.25;4945990;28;124054;-71
2022/04/06 06:24:47;;;;;;;8.85;2.22;;;;;;;13.23;57.05;100162.66;4935125;28;124712;-71
2022/04/06 06:27:19;;;;;;;8.05;2.05;;;;;;;13.23;56.82;100168.00;4933324;28;115319;-71
2022/04/06 06:29:48;;;;;;;7.68;2.45;;;;;;;13.25;57.12;100174.06;4931148;28;115258;-71
2022/04/06 06:32:16;;;;;;;5.88;1.80;;;;;;;13.25;56.88;100161.59;4946235;28;124006;-70
2022/04/06 06:34:43;;;;;;;7.13;1.70;;;;;;;13.25;56.98;100166.06;4931848;28;124836;-70
2022/04/06 06:37:11;;;;;;;13.10;2.47;;;;;;;13.25;56.76;100166.91;4935771;28;114716;-70
2022/04/06 06:39:54;;;;;;;7.88;2.08;;;;;;;13.27;56.72;100169.47;4943208;28;114193;-70
2022/04/06 06:42:21;;;;;;;8.52;1.80;;;;;;;13.28;56.67;100157.91;4932572;28;124199;-70
2022/04/06 06:44:50;;;;;;;5.13;1.33;;;;;;;13.30;56.66;100164.00;4940213;28;125699;-70
2022/04/06 06:47:17;;;;;;;4.00;1.42;;;;;;;13.32;56.48;100162.09;4939315;28;114729;-70
2022/04/06 06:49:47;;;;;;;3.90;1.58;;;;;;;13.35;56.53;100161.88;4934467;28;114281;-71
2022/04/06 06:52:14;;;;;;;6.93;1.60;;;;;;;13.38;56.56;100166.97;4938912;28;124128;-70
2022/04/06 06:54:41;;;;;;;9.30;1.90;;;;;;;13.39;56.32;100174.03;4936988;28;124511;-70
2022/04/06 06:57:11;;;;;;;3.80;1.52;;;;;;;13.42;56.16;100162.31;4938554;28;114578;-69
2022/04/06 06:59:38;;;;;;;5.20;1.90;;;;;;;13.42;56.04;100157.84;4937868;28;113837;-69
2022/04/06 07:02:06;;;;;;;3.90;1.50;;;;;;;13.43;56.08;100153.38;4943314;28;124763;-69
2022/04/06 07:04:33;;;;;;;5.70;1.63;;;;;;;13.44;55.78;100161.25;4952834;28;123162;-69
2022/04/06 07:07:00;;;;;;;4.63;1.45;;;;;;;13.46;55.65;100158.47;4933606;28;114519;-69
2022/04/06 07:09:27;;;;;;;6.60;1.48;;;;;;;13.48;55.48;100147.75;4949475;28;113235;-68
2022/04/06 07:11:54;;;;;;;4.45;1.40;;;;;;;13.50;55.23;100149.31;4930544;28;123881;-69
2022/04/06 07:14:22;;;;;;;3.80;1.17;;;;;;;13.53;55.29;100158.94;4933237;28;124245;-69
2022/04/06 07:16:49;;;;;;;5.07;1.30;;;;;;;13.55;55.15;100143.72;4931290;28;115284;-69
2022/04/06 07:19:16;;;;;;;5.90;1.83;;;;;;;13.57;55.11;100145.28;4930783;28;115189;-69
2022/04/06 07:21:44;;;;;;;6.60;1.58;;;;;;;13.61;55.02;100157.44;4930251;28;125321;-69
2022/04/06 07:24:11;;;;;;;4.47;1.20;;;;;;;13.64;54.90;100140.41;4947824;28;123804;-68
2022/04/06 07:26:38;;;;;;;6.30;1.38;;;;;;;13.66;54.68;100140.31;4931679;28;114517;-69
2022/04/06 07:29:06;;;;;;;4.45;0.98;;;;;;;13.67;54.62;100134.88;4931940;28;113964;-70
2022/04/06 07:31:33;;;;;;;5.97;1.40;;;;;;;13.69;54.44;100134.75;4931383;28;124143;-67
2022/04/06 07:34:01;;;;;;;5.93;1.20;;;;;;;13.71;54.39;100130.19;4932032;28;123970;-67
2022/04/06 07:36:28;;;;;;;3.35;1.00;;;;;;;13.72;54.21;100132.75;4937688;28;114203;-67
2022/04/06 07:38:55;;;;;;;4.03;1.00;;;;;;;13.74;54.24;100128.16;4937074;28;114485;-67
2022/04/06 07:41:24;;;;;;;4.22;1.25;;;;;;;13.76;54.23;100134.22;4943788;28;124923;-68
2022/04/06 07:43:52;;;;;;;4.90;1.10;;;;;;;13.80;54.31;100114.41;4943830;28;124350;-68
2022/04/06 07:46:19;;;;;;;6.72;1.50;;;;;;;13.86;54.31;100112.28;4953851;28;113721;-68
2022/04/06 07:48:46;;;;;;;4.55;1.20;;;;;;;13.91;54.08;100120.81;4954934;28;114040;-68
2022/04/06 07:51:14;;;;;;;7.53;1.50;;;;;;;13.93;54.14;100110.91;4931240;28;124249;-68
2022/04/06 07:53:41;;;;;;;6.28;1.50;;;;;;;13.96;54.08;100116.03;4933537;28;124552;-68
2022/04/06 07:56:08;;;;;;;7.50;1.70;;;;;;;13.98;54.18;100116.75;4939464;28;114215;-69
2022/04/06 07:58:35;;;;;;;4.20;1.50;;;;;;;14.00;54.09;100109.50;4940220;28;113887;-68
2022/04/06 08:01:05;;;;;;;4.93;1.70;;;;;;;14.01;54.17;100117.41;4965683;28;123606;-68
2022/04/06 08:03:33;;;;;;;8.00;1.73;;;;;;;14.04;54.23;100121.66;4932257;28;123986;-68
2022/04/06 08:06:00;;;;;;;8.57;1.77;;;;;;;14.05;54.10;100110.00;4929704;28;115654;-68
2022/04/06 08:08:27;;;;;;;5.63;1.90;;;;;;;14.04;54.27;100105.66;4929156;28;116533;-68
2022/04/06 08:10:54;;;;;;;4.35;1.70;;;;;;;14.06;54.19;100102.91;4945275;28;123953;-68
2022/04/06 08:13:21;;;;;;;8.13;1.98;;;;;;;14.07;54.34;100100.13;4931438;28;123937;-68
2022/04/06 08:15:55;;;;;;;6.25;2.03;;;;;;;14.10;54.36;100110.53;4929911;28;114114;-68
2022/04/06 08:18:22;;;;;;;5.55;1.73;;;;;;;14.11;54.39;100101.59;4947829;28;113491;-68
2022/04/06 08:20:49;;;;;;;4.45;1.70;;;;;;;14.12;54.26;100105.97;4929481;28;123790;-68
2022/04/06 08:23:21;;;;;;;7.47;2.05;;;;;;;14.12;54.25;100103.28;4931231;28;123984;-68
2022/04/06 08:26:16;;;;;;;6.40;1.98;;;;;;;14.09;54.34;100114.19;4929813;28;114695;-68
2022/04/06 08:28:44;;;;;;;8.63;1.92;;;;;;;14.06;54.03;100109.06;4929690;28;114309;-68
2022/04/06 08:31:11;;;;;;;6.20;1.92;;;;;;;14.05;54.36;100102.03;4928977;28;124678;-68
2022/04/06 08:33:38;;;;;;;5.15;2.05;;;;;;;14.05;54.36;100104.69;4930922;28;124033;-68
2022/04/06 08:36:06;;;;;;;6.72;1.98;;;;;;;14.04;54.29;100111.00;4931404;28;114138;-68
2022/04/06 08:38:33;;;;;;;3.70;2.20;;;;;;;14.02;54.33;100104.94;4929798;28;114121;-67
2022/04/06 08:41:00;;;;;;;9.13;2.88;;;;;;;14.00;54.28;100109.50;4943524;28;123784;-68
2022/04/06 08:43:42;;;;;;;5.45;2.20;;;;;;;13.95;54.26;100101.84;4930874;28;124261;-68
2022/04/06 08:46:11;;;;;;;6.90;1.98;;;;;;;13.94;54.39;100104.63;4929636;28;114621;-68
2022/04/06 08:48:38;;;;;;;5.28;2.42;;;;;;;13.92;54.50;100096.75;4930208;28;113794;-68
2022/04/06 08:51:11;;;;;;;9.02;2.22;;;;;;;13.94;54.46;100109.97;4928713;28;124393;-67
2022/04/06 08:53:46;;;;;;;7.55;2.50;;;;;;;13.92;54.40;100107.41;4944960;28;123730;-68
2022/04/06 08:56:14;;;;;;;5.15;2.10;;;;;;;13.91;54.40;100099.50;4929717;28;115532;-69
2022/04/06 08:58:41;;;;;;;10.25;2.28;;;;;;;13.93;54.53;100097.59;4945482;28;115349;-67
2022/04/06 09:01:09;;;;;;;9.48;2.10;;;;;;;13.93;54.55;100094.94;4930251;28;125664;-67
2022/04/06 09:03:37;;;;;;;7.45;2.25;;;;;;;13.93;54.66;100086.94;4931068;28;124232;-70
2022/04/06 09:06:06;;;;;;;7.90;2.08;;;;;;;13.97;54.46;100088.41;4932000;28;114635;-68
2022/04/06 09:08:44;;;;;;;6.10;2.00;;;;;;;13.99;54.56;100081.19;4929938;28;114137;-68
2022/04/06 09:11:13;;;;;;;5.53;1.80;;;;;;;14.02;54.69;100086.28;4929631;28;124160;-68
2022/04/06 09:13:42;;;;;;;6.35;1.90;;;;;;;14.05;54.47;100091.38;4931005;28;123291;-68
2022/04/06 09:16:14;;;;;;;5.53;1.90;;;;;;;14.07;54.50;100084.16;4931593;28;114442;-69
2022/04/06 09:18:44;;;;;;;6.70;1.67;;;;;;;14.09;54.42;100092.88;4929060;28;114575;-70
2022/04/06 09:21:13;;;;;;;6.40;1.83;;;;;;;14.11;54.50;100085.63;4945826;28;123036;-71
2022/04/06 09:23:40;;;;;;;6.63;1.90;;;;;;;14.13;54.59;100089.03;4930015;28;124147;-70
2022/04/06 09:26:11;;;;;;;6.97;2.30;;;;;;;14.14;54.62;100085.38;4929222;28;114987;-70
2022/04/06 09:28:42;;;;;;;8.18;1.80;;;;;;;14.17;54.58;100087.84;4931718;28;114280;-69
2022/04/06 09:31:13;;;;;;;5.88;1.70;;;;;;;14.19;54.57;100093.06;4931052;28;124480;-70
2022/04/06 09:33:41;;;;;;;9.23;1.90;;;;;;;14.19;54.37;100083.25;4929932;28;124487;-70
2022/04/06 09:36:19;;;;;;;6.20;1.80;;;;;;;14.19;54.53;100088.59;4929176;28;115442;-70
2022/04/06 09:38:48;;;;;;;9.27;1.90;;;;;;;14.21;54.47;100089.31;4929369;28;114533;-70
2022/04/06 09:41:16;;;;;;;4.35;1.70;;;;;;;14.19;54.49;100093.91;4932145;28;123943;-70
2022/04/06 09:43:48;;;;;;;6.05;1.95;;;;;;;14.17;54.59;100095.84;4933946;28;125424;-70
2022/04/06 09:49:20;;;;;;;4.57;1.80;;;;;;;14.08;54.55;100085.84;4949954;28;114746;-68
2022/04/06 09:51:53;;;;;;;7.18;2.17;;;;;;;14.04;54.69;100084.38;4953367;28;123754;-68
2022/04/06 09:54:26;;;;;;;4.32;1.85;;;;;;;14.02;54.68;100080.97;4953116;28;124690;-68
2022/04/06 09:56:54;;;;;;;6.07;2.17;;;;;;;14.01;54.96;100080.13;4943344;28;114912;-68
2022/04/06 09:59:22;;;;;;;4.55;1.65;;;;;;;14.03;55.04;100087.97;4945102;28;113830;-68
2022/04/06 10:01:52;;;;;;;7.53;2.13;;;;;;;14.03;54.97;100077.31;4939127;28;124697;-68
2022/04/06 10:04:26;;;;;;;5.20;1.80;;;;;;;14.03;55.02;100085.31;4942533;28;123922;-68
2022/04/06 10:06:55;;;;;;;6.35;2.05;;;;;;;14.05;55.05;100075.41;4945116;28;114723;-68
2022/04/06 10:09:25;;;;;;;6.40;2.33;;;;;;;14.07;55.13;100073.50;4938273;28;114413;-69
2022/04/06 10:11:54;;;;;;;7.38;1.77;;;;;;;14.11;55.17;100074.97;4940665;28;124050;-70
2022/04/06 10:14:24;;;;;;;8.23;2.10;;;;;;;14.14;55.19;100068.56;4953446;28;123851;-70
2022/04/06 10:16:52;;;;;;;5.28;2.22;;;;;;;14.17;55.26;100063.88;4948143;28;113317;-70
2022/04/06 10:19:21;;;;;;;5.15;1.70;;;;;;;14.20;55.15;100065.44;4942659;28;114199;-70
2022/04/06 10:21:54;;;;;;;6.63;1.80;;;;;;;14.22;55.34;100076.84;4935807;28;123107;-70
2022/04/06 10:24:28;;;;;;;5.72;2.00;;;;;;;14.23;55.18;100067.06;4950224;28;123797;-70
2022/04/06 10:27:11;;;;;;;5.47;2.05;;;;;;;14.21;55.08;100065.34;4943028;28;114327;-70
2022/04/06 10:30:06;;;;;;;8.43;1.98;;;;;;;14.17;55.30;100058.56;4940175;28;113904;-68
2022/04/06 10:32:38;;;;;;;4.95;2.20;;;;;;;14.15;55.25;100055.16;4953414;28;122440;-69
2022/04/06 10:35:30;;;;;;;4.05;1.80;;;;;;;14.14;55.27;100053.44;4940046;28;123733;-68
2022/04/06 10:37:58;;;;;;;6.30;2.30;;;;;;;14.16;55.52;100056.00;4941705;28;115144;-68
2022/04/06 10:40:26;;;;;;;6.13;1.90;;;;;;;14.17;55.51;100058.56;4941440;28;115243;-68
2022/04/06 10:42:54;;;;;;;5.95;1.98;;;;;;;14.18;55.44;100056.72;4938172;28;123579;-68
2022/04/06 10:45:27;;;;;;;6.85;2.40;;;;;;;14.16;55.48;100051.50;4953141;28;123540;-68
2022/04/06 10:48:13;;;;;;;6.88;2.00;;;;;;;14.14;55.50;100053.44;4945818;28;114293;-68
2022/04/06 10:50:43;;;;;;;4.55;1.90;;;;;;;14.13;55.47;100051.75;4937186;28;114251;-69
2022/04/06 10:53:22;;;;;;;5.65;2.42;;;;;;;14.11;55.57;100058.13;4937831;28;123505;-68
2022/04/06 10:55:57;;;;;;;6.22;1.75;;;;;;;14.07;55.48;100041.56;4944298;28;123661;-68
2022/04/06 10:58:26;;;;;;;6.78;1.80;;;;;;;14.09;55.54;100044.94;4933381;28;114723;-68
2022/04/06 11:01:29;;;;;;;7.63;2.00;;;;;;;14.09;55.63;100044.94;4937557;28;113484;-69
2022/04/06 11:03:59;;;;;;;4.80;1.85;;;;;;;14.12;55.76;100043.88;4933334;28;124717;-68
2022/04/06 11:06:44;;;;;;;4.90;1.88;;;;;;;14.14;55.69;100045.44;4940846;28;123934;-69
2022/04/06 11:12:23;;;;;;;4.25;2.13;;;;;;;14.14;55.66;100037.47;4935731;28;114157;-68
2022/04/06 11:15:10;;;;;;;4.30;2.08;;;;;;;14.14;55.79;100042.78;4932641;28;124672;-68
2022/04/06 11:17:39;;;;;;;5.40;1.60;;;;;;;14.17;55.72;100037.25;4932709;28;124253;-68
2022/04/06 11:20:12;;;;;;;8.52;1.80;;;;;;;14.19;55.65;100037.13;4936685;28;114187;-68
2022/04/06 11:22:43;;;;;;;4.80;2.17;;;;;;;14.20;55.69;100025.50;4943140;28;114476;-70
2022/04/06 11:25:14;;;;;;;4.78;1.77;;;;;;;14.23;55.86;100027.94;4940032;28;124038;-70
2022/04/06 11:27:44;;;;;;;3.80;1.63;;;;;;;14.28;55.77;100024.94;4934634;28;124268;-70
2022/04/06 11:30:17;;;;;;;5.90;1.90;;;;;;;14.32;55.63;100026.44;4947391;28;116011;-70
2022/04/06 11:32:55;;;;;;;3.17;1.98;;;;;;;14.36;55.78;100030.56;4950466;28;114897;-70